createdAt,value
2023-08-02T00:00:08.772Z,6.70
2023-08-02T00:02:38.628Z,7.57
2023-08-02T00:05:10.047Z,7.97
2023-08-02T00:07:38.716Z,7.83
2023-08-02T00:10:08.629Z,5.90
2023-08-02T00:12:37.316Z,8.07
2023-08-02T00:15:10.207Z,7.10
2023-08-02T00:17:39.871Z,7.17
2023-08-02T00:20:11.184Z,7.47
2023-08-02T00:22:39.809Z,5.77
2023-08-02T00:25:09.271Z,8.47
2023-08-02T00:27:37.760Z,8.83
2023-08-02T00:30:07.482Z,5.90
2023-08-02T00:32:44.847Z,6.40
2023-08-02T00:35:15.248Z,7.10
2023-08-02T00:37:44.372Z,7.17
2023-08-02T00:40:14.544Z,5.07
2023-08-02T00:42:43.603Z,7.17
2023-08-02T00:45:13.068Z,7.13
2023-08-02T00:47:42.735Z,6.67
2023-08-02T00:50:12.924Z,8.97
2023-08-02T00:52:43.835Z,7.00
2023-08-02T00:55:12.671Z,6.43
2023-08-02T00:57:41.458Z,8.13
2023-08-02T01:00:10.953Z,7.83
2023-08-02T01:02:40.082Z,7.40
2023-08-02T01:05:09.647Z,5.63
2023-08-02T01:07:48.425Z,4.73
2023-08-02T01:10:25.222Z,7.93
2023-08-02T01:12:57.169Z,5.03
2023-08-02T01:15:28.472Z,5.70
2023-08-02T01:17:57.839Z,4.40
2023-08-02T01:20:28.792Z,9.53
2023-08-02T01:22:57.605Z,6.20
2023-08-02T01:25:29.895Z,6.07
2023-08-02T01:28:02.212Z,7.03
2023-08-02T01:30:37.479Z,6.60
2023-08-02T01:33:06.981Z,5.73
2023-08-02T01:35:37.649Z,6.40
2023-08-02T01:38:07.334Z,5.90
2023-08-02T01:40:36.162Z,5.53
2023-08-02T01:43:04.800Z,6.03
2023-08-02T01:45:33.817Z,4.93
2023-08-02T01:48:02.887Z,7.90
2023-08-02T01:50:31.640Z,5.93
2023-08-02T01:53:01.634Z,7.20
2023-08-02T01:55:30.237Z,3.60
2023-08-02T01:57:59.075Z,3.60
2023-08-02T02:00:28.008Z,5.30
2023-08-02T02:02:58.651Z,5.97
2023-08-02T02:05:27.408Z,4.37
2023-08-02T02:07:55.983Z,4.87
2023-08-02T02:10:26.437Z,4.27
2023-08-02T02:12:55.059Z,5.17
2023-08-02T02:15:23.642Z,4.23
2023-08-02T02:17:52.248Z,7.20
2023-08-02T02:20:21.230Z,7.03
2023-08-02T02:22:49.800Z,3.83
2023-08-02T02:25:18.467Z,8.73
2023-08-02T02:27:48.418Z,3.97
2023-08-02T02:30:17.460Z,3.30
2023-08-02T02:32:46.198Z,7.33
2023-08-02T02:35:15.076Z,7.37
2023-08-02T02:37:44.233Z,6.83
2023-08-02T02:40:13.615Z,5.57
2023-08-02T02:42:43.216Z,5.50
2023-08-02T02:45:15.198Z,4.03
2023-08-02T02:47:43.752Z,6.20
2023-08-02T02:50:12.523Z,3.83
2023-08-02T02:52:45.118Z,4.37
2023-08-02T02:55:14.086Z,11.77
2023-08-02T02:57:42.654Z,6.53
2023-08-02T03:00:13.869Z,7.57
2023-08-02T03:02:42.649Z,7.03
2023-08-02T03:05:11.833Z,5.13
2023-08-02T03:07:40.362Z,3.57
2023-08-02T03:10:09.932Z,7.23
2023-08-02T03:12:38.454Z,4.97
2023-08-02T03:15:08.693Z,6.50
2023-08-02T03:17:38.746Z,5.00
2023-08-02T03:20:08.756Z,8.10
2023-08-02T03:22:37.343Z,8.13
2023-08-02T03:25:06.580Z,6.00
2023-08-02T03:27:35.139Z,7.53
2023-08-02T03:30:04.214Z,9.43
2023-08-02T03:32:32.870Z,7.03
2023-08-02T03:35:02.903Z,7.73
2023-08-02T05:49:26.458Z,5.80
2023-08-02T05:51:54.815Z,5.67
2023-08-02T05:54:23.230Z,4.93
2023-08-02T05:56:52.705Z,3.93
2023-08-02T05:59:22.264Z,4.27
2023-08-02T06:01:51.655Z,6.37
2023-08-02T06:04:22.195Z,3.87
2023-08-02T06:06:52.427Z,3.87
2023-08-02T06:09:21.443Z,5.03
2023-08-02T06:11:51.810Z,3.60
2023-08-02T06:14:20.426Z,3.20
2023-08-02T06:16:50.652Z,4.93
2023-08-02T06:19:20.065Z,4.70
2023-08-02T06:21:48.546Z,6.40
2023-08-02T06:24:19.012Z,4.13
2023-08-02T06:26:48.958Z,4.13
2023-08-02T06:29:18.001Z,5.17
2023-08-02T06:31:49.696Z,5.47
2023-08-02T06:34:19.445Z,4.50
2023-08-02T06:36:48.009Z,4.83
2023-08-02T06:39:17.984Z,4.80
2023-08-02T06:41:46.401Z,5.03
2023-08-02T06:44:15.205Z,3.37
2023-08-02T06:46:44.128Z,3.13
2023-08-02T06:49:13.073Z,5.77
2023-08-02T06:51:42.332Z,5.90
2023-08-02T06:54:14.345Z,7.70
2023-08-02T06:56:45.482Z,5.37
2023-08-02T06:59:14.639Z,7.77
2023-08-02T07:01:44.496Z,5.63
2023-08-02T07:04:14.576Z,7.90
2023-08-02T07:06:44.650Z,9.30
2023-08-02T07:09:16.180Z,5.17
2023-08-02T07:11:46.435Z,7.13
2023-08-02T07:14:17.253Z,5.03
2023-08-02T07:16:46.614Z,6.23
2023-08-02T07:19:15.457Z,4.90
2023-08-02T07:21:44.387Z,6.60
2023-08-02T07:24:13.183Z,6.30
2023-08-02T07:26:42.465Z,7.30
2023-08-02T07:29:12.897Z,4.97
2023-08-02T07:31:42.185Z,8.73
2023-08-02T07:34:13.284Z,8.47
2023-08-02T07:36:44.889Z,7.20
2023-08-02T07:39:14.225Z,5.87
2023-08-02T07:41:43.260Z,5.93
2023-08-02T07:44:13.598Z,8.57
2023-08-02T07:46:43.984Z,6.00
2023-08-02T07:49:14.122Z,5.37
2023-08-02T07:51:44.457Z,6.43
2023-08-02T07:54:14.574Z,6.37
2023-08-02T07:56:46.200Z,6.70
2023-08-02T07:59:18.139Z,6.53
2023-08-02T08:01:48.688Z,8.43
2023-08-02T08:04:23.172Z,7.13
2023-08-02T08:06:52.556Z,7.23
2023-08-02T08:09:25.405Z,7.67
2023-08-02T08:11:53.947Z,5.53
2023-08-02T08:14:26.762Z,6.07
2023-08-02T08:16:59.890Z,6.40
2023-08-02T08:19:31.019Z,4.80
2023-08-02T08:22:01.832Z,6.70
2023-08-02T08:24:37.078Z,4.37
2023-08-02T08:27:10.953Z,4.23
2023-08-02T08:29:42.920Z,4.67
2023-08-02T08:32:12.460Z,4.10
2023-08-02T08:34:43.818Z,4.07
2023-08-02T08:37:13.226Z,4.43
2023-08-02T08:39:42.323Z,3.20
2023-08-02T08:42:14.342Z,4.40
2023-08-02T08:44:49.569Z,4.40
2023-08-02T08:47:20.425Z,3.60
2023-08-02T08:49:50.587Z,4.37
2023-08-02T08:52:22.013Z,4.50
2023-08-02T08:54:55.132Z,2.30
2023-08-02T08:57:24.815Z,2.03
2023-08-02T08:59:55.756Z,2.33
2023-08-02T09:02:28.285Z,3.43
2023-08-02T09:05:02.608Z,2.37
2023-08-02T09:07:31.517Z,3.63
2023-08-02T09:10:02.977Z,2.40
2023-08-02T09:12:45.715Z,3.13
2023-08-02T09:15:19.915Z,2.80
2023-08-02T09:17:52.898Z,2.07
2023-08-02T09:20:24.062Z,2.47
2023-08-02T09:22:56.285Z,3.30
2023-08-02T09:25:26.901Z,2.83
2023-08-02T09:27:57.902Z,1.70
2023-08-02T09:30:30.406Z,2.10
2023-08-02T09:33:06.753Z,2.37
2023-08-02T09:35:50.457Z,2.20
2023-08-02T09:38:22.931Z,3.97
2023-08-02T09:41:32.504Z,2.40
2023-08-02T09:43:50.057Z,3.00
2023-08-02T09:46:32.098Z,2.07
2023-08-02T09:49:05.487Z,4.97
2023-08-02T09:51:45.241Z,3.90
2023-08-02T09:54:16.877Z,2.40
2023-08-02T09:56:51.428Z,2.80
2023-08-02T09:59:27.483Z,1.83
2023-08-02T10:02:02.982Z,2.20
2023-08-02T10:04:43.050Z,2.23
2023-08-02T10:07:21.960Z,1.60
2023-08-02T10:09:58.824Z,1.50
2023-08-02T10:12:37.184Z,2.13
2023-08-02T10:15:10.223Z,1.10
2023-08-02T10:17:47.846Z,0.90
2023-08-02T10:20:20.729Z,1.50
2023-08-02T10:22:55.539Z,1.03
2023-08-02T10:25:25.869Z,2.23
2023-08-02T10:27:58.616Z,1.10
2023-08-02T10:30:28.174Z,2.87
2023-08-02T10:33:25.500Z,1.50
2023-08-02T10:36:05.552Z,1.47
2023-08-02T10:39:03.149Z,2.17
2023-08-02T10:41:34.080Z,1.63
2023-08-02T10:44:18.874Z,1.40
2023-08-02T10:46:49.228Z,3.43
2023-08-02T10:49:45.636Z,1.40
2023-08-02T10:52:32.963Z,1.37
2023-08-02T10:55:26.351Z,1.03
2023-08-02T10:58:11.558Z,1.43
2023-08-02T11:00:41.404Z,1.27
2023-08-02T11:03:11.244Z,2.42
2023-08-02T11:05:51.929Z,2.67
2023-08-02T11:08:24.669Z,1.23
2023-08-02T11:10:57.518Z,1.02
2023-08-02T11:13:43.364Z,0.60
2023-08-02T11:16:19.886Z,2.30
2023-08-02T11:18:54.830Z,1.45
2023-08-02T11:21:40.858Z,0.60
2023-08-02T11:24:14.354Z,1.13
2023-08-02T11:29:22.247Z,0.80
2023-08-02T11:34:44.253Z,1.38
2023-08-02T11:37:25.155Z,1.48
2023-08-02T11:40:25.407Z,0.68
2023-08-02T11:43:24.442Z,1.52
2023-08-02T11:45:56.528Z,0.52
2023-08-02T11:48:30.052Z,0.68
2023-08-02T11:51:05.623Z,0.55
2023-08-02T11:53:49.455Z,0.40
2023-08-02T11:56:23.818Z,1.85
2023-08-02T11:59:00.364Z,0.55
2023-08-02T12:01:32.696Z,1.38
2023-08-02T12:04:03.554Z,1.15
2023-08-02T12:07:12.795Z,0.70
2023-08-02T12:09:54.715Z,1.88
2023-08-02T12:12:28.695Z,0.70
2023-08-02T12:14:58.802Z,1.13
2023-08-02T12:17:33.226Z,5.18
2023-08-02T12:20:04.926Z,0.60
2023-08-02T12:22:52.390Z,2.17
2023-08-02T12:25:23.798Z,1.10
2023-08-02T12:28:10.142Z,1.17
2023-08-02T12:30:42.781Z,1.85
2023-08-02T12:33:15.903Z,1.77
2023-08-02T12:35:46.195Z,1.50
2023-08-02T12:38:14.862Z,2.92
2023-08-02T12:40:49.393Z,3.38
2023-08-02T12:43:18.326Z,0.90
2023-08-02T12:45:51.412Z,1.65
2023-08-02T12:48:33.147Z,1.67
2023-08-02T12:51:09.221Z,1.00
2023-08-02T12:53:42.145Z,0.83
2023-08-02T12:56:17.276Z,1.10
2023-08-02T12:58:45.942Z,6.37
2023-08-02T13:01:19.036Z,3.37
2023-08-02T13:03:57.335Z,3.30
2023-08-02T13:06:30.032Z,3.73
2023-08-02T13:09:02.234Z,7.33
2023-08-02T13:11:35.521Z,3.63
2023-08-02T13:14:06.065Z,12.53
2023-08-02T13:16:35.722Z,7.50
2023-08-02T13:19:05.171Z,3.77
2023-08-02T13:21:38.091Z,3.17
2023-08-02T13:24:09.952Z,3.53
2023-08-02T13:26:45.380Z,2.37
2023-08-02T13:29:15.822Z,1.27
2023-08-02T13:31:47.988Z,3.73
2023-08-02T13:34:19.095Z,1.65
2023-08-02T13:36:50.774Z,1.17
2023-08-02T13:39:19.920Z,0.85
2023-08-02T13:41:55.476Z,0.97
2023-08-02T13:44:27.937Z,0.98
2023-08-02T13:47:00.734Z,1.58
2023-08-02T13:49:31.448Z,1.48
2023-08-02T13:52:04.262Z,2.90
2023-08-02T13:54:33.767Z,2.70
2023-08-02T13:57:11.568Z,1.98
2023-08-02T13:59:42.358Z,1.58
2023-08-02T14:02:20.888Z,1.25
2023-08-02T14:04:50.251Z,2.42
2023-08-02T14:07:30.959Z,2.67
2023-08-02T14:10:01.656Z,2.55
2023-08-02T14:12:38.885Z,1.13
2023-08-02T14:15:19.177Z,2.35
2023-08-02T14:17:54.578Z,1.42
2023-08-02T14:20:24.949Z,1.83
2023-08-02T14:22:56.398Z,4.47
2023-08-02T14:25:28.858Z,3.42
2023-08-02T14:28:03.094Z,4.63
2023-08-02T14:30:32.666Z,3.72
2023-08-02T14:33:10.218Z,4.22
2023-08-02T14:35:45.881Z,5.57
2023-08-02T14:38:17.110Z,4.63
2023-08-02T14:40:54.756Z,3.73
2023-08-02T14:43:33.744Z,6.17
2023-08-02T14:46:04.821Z,6.63
2023-08-02T14:48:41.454Z,7.83
2023-08-02T14:51:12.268Z,5.53
2023-08-02T14:53:50.302Z,3.40
2023-08-02T14:56:26.907Z,7.00
2023-08-02T14:59:02.748Z,5.13
2023-08-02T15:01:37.683Z,6.28
2023-08-02T15:04:07.539Z,4.60
2023-08-02T15:06:37.435Z,5.28
2023-08-02T15:09:08.667Z,3.72
2023-08-02T15:11:43.271Z,7.53
2023-08-02T15:14:29.982Z,6.70
2023-08-02T15:17:07.896Z,4.25
2023-08-02T15:19:38.702Z,4.65
2023-08-02T15:22:18.721Z,7.63
2023-08-02T15:24:51.729Z,7.22
2023-08-02T15:27:21.245Z,9.35
2023-08-02T15:30:02.263Z,8.88
2023-08-02T15:32:32.221Z,9.95
2023-08-02T15:35:04.690Z,4.75
2023-08-02T15:37:35.221Z,8.13
2023-08-02T15:40:08.027Z,6.55
2023-08-02T15:42:37.524Z,4.20
2023-08-02T15:45:10.197Z,7.32
2023-08-02T15:47:48.932Z,7.75
2023-08-02T15:50:19.356Z,6.22
2023-08-02T15:52:50.804Z,7.30
2023-08-02T15:55:23.997Z,8.40
2023-08-02T15:57:56.281Z,8.07
2023-08-02T16:00:27.082Z,6.28
2023-08-02T16:02:57.557Z,5.43
2023-08-02T16:05:39.619Z,5.43
2023-08-02T16:08:21.304Z,6.53
2023-08-02T16:10:56.985Z,4.78
2023-08-02T16:13:25.974Z,4.75
2023-08-02T16:15:57.116Z,6.60
2023-08-02T16:18:31.614Z,6.22
2023-08-02T16:21:01.601Z,4.25
2023-08-02T16:23:43.344Z,6.07
2023-08-02T16:26:15.752Z,4.15
2023-08-02T16:28:50.221Z,4.78
2023-08-02T16:31:25.294Z,5.22
2023-08-02T16:33:56.731Z,4.22
2023-08-02T16:36:26.910Z,4.38
2023-08-02T16:38:55.566Z,4.50
2023-08-02T16:41:24.360Z,5.00
2023-08-02T16:43:54.418Z,3.00
2023-08-02T16:46:28.505Z,5.75
2023-08-02T16:48:58.158Z,5.80
2023-08-02T16:51:30.689Z,5.10
2023-08-02T16:53:59.960Z,5.50
2023-08-02T16:56:32.270Z,5.30
2023-08-02T16:59:07.581Z,3.92
2023-08-02T17:01:38.442Z,6.90
2023-08-02T17:04:07.917Z,4.72
2023-08-02T17:06:37.213Z,7.20
2023-08-02T17:09:08.714Z,2.78
2023-08-02T17:11:38.179Z,4.13
2023-08-02T17:14:10.646Z,3.47
2023-08-02T17:16:49.388Z,5.03
2023-08-02T17:19:26.610Z,2.90
2023-08-02T17:21:56.732Z,2.05
2023-08-02T17:24:29.238Z,3.05
2023-08-02T17:26:58.389Z,3.88
2023-08-02T17:29:32.442Z,1.90
2023-08-02T17:32:06.759Z,1.52
2023-08-02T17:34:36.810Z,2.17
2023-08-02T17:37:18.958Z,3.03
2023-08-02T17:39:59.732Z,3.07
2023-08-02T17:42:36.255Z,1.93
2023-08-02T17:45:08.926Z,2.77
2023-08-02T17:47:41.045Z,3.20
2023-08-02T17:50:12.573Z,2.10
2023-08-02T17:52:44.679Z,3.40
2023-08-02T17:55:16.545Z,3.73
2023-08-02T17:57:45.876Z,1.13
2023-08-02T18:00:20.438Z,2.87
2023-08-02T18:02:50.784Z,2.13
2023-08-02T18:05:23.048Z,1.63
2023-08-02T18:07:53.699Z,1.73
2023-08-02T18:10:27.424Z,3.63
2023-08-02T18:13:00.115Z,1.50
2023-08-02T18:15:28.848Z,1.70
2023-08-02T18:18:08.225Z,1.60
2023-08-02T18:20:40.477Z,3.43
2023-08-02T18:23:19.214Z,2.10
2023-08-02T18:25:48.906Z,2.37
2023-08-02T18:28:19.837Z,3.47
2023-08-02T18:31:00.464Z,4.13
2023-08-02T18:33:34.453Z,3.40
2023-08-02T18:36:08.155Z,7.20
2023-08-02T18:38:39.166Z,2.57
2023-08-02T18:41:17.236Z,4.03
2023-08-02T18:43:49.911Z,4.83
2023-08-02T18:46:25.075Z,2.40
2023-08-02T18:48:56.722Z,3.23
2023-08-02T18:51:25.764Z,7.47
2023-08-02T18:53:54.685Z,13.40
2023-08-02T18:56:25.952Z,13.83
2023-08-02T18:58:55.666Z,10.10
2023-08-02T19:01:26.903Z,13.87
2023-08-02T19:04:00.619Z,10.87
2023-08-02T19:06:30.149Z,19.63
2023-08-02T19:09:08.701Z,21.13
2023-08-02T19:11:45.035Z,13.70
2023-08-02T19:14:17.975Z,36.67
2023-08-02T19:17:03.119Z,28.40
2023-08-02T19:19:35.237Z,7.80
2023-08-02T19:22:14.895Z,16.07
2023-08-02T19:24:44.556Z,12.23
2023-08-02T19:27:17.020Z,7.30
2023-08-02T19:29:47.983Z,10.23
2023-08-02T19:32:31.878Z,3.17
2023-08-02T19:35:07.473Z,8.37
2023-08-02T19:37:42.354Z,3.50
2023-08-02T19:40:15.716Z,3.50
2023-08-02T19:42:48.311Z,2.60
2023-08-02T19:45:21.546Z,5.67
2023-08-02T19:47:53.841Z,4.20
2023-08-02T19:50:43.833Z,3.43
2023-08-02T19:53:21.615Z,2.43
2023-08-02T19:55:51.895Z,6.80
2023-08-02T19:58:24.349Z,5.77
2023-08-02T20:00:59.852Z,8.97
2023-08-02T20:03:36.418Z,6.57
2023-08-02T20:06:08.374Z,4.70
2023-08-02T20:08:38.835Z,5.03
2023-08-02T20:11:11.697Z,6.57
2023-08-02T20:13:44.879Z,5.20
2023-08-02T20:16:28.019Z,4.73
2023-08-02T20:19:05.992Z,7.40
2023-08-02T20:21:56.364Z,7.90
2023-08-02T20:24:28.099Z,5.60
2023-08-02T20:27:04.673Z,5.93
2023-08-02T20:29:38.451Z,7.27
2023-08-02T20:32:20.797Z,7.17
2023-08-02T20:35:03.327Z,5.20
2023-08-02T20:37:47.137Z,6.40
2023-08-02T20:40:18.281Z,7.23
2023-08-02T20:42:54.564Z,7.37
2023-08-02T20:45:38.248Z,6.70
2023-08-02T20:48:08.633Z,10.10
2023-08-02T20:50:38.022Z,7.77
2023-08-02T20:53:16.879Z,7.67
2023-08-02T20:55:46.989Z,7.13
2023-08-02T20:58:23.793Z,5.97
2023-08-02T21:01:00.006Z,5.57
2023-08-02T21:03:35.448Z,6.13
2023-08-02T21:06:10.390Z,6.80
2023-08-02T21:08:47.080Z,6.23
2023-08-02T21:11:16.039Z,5.70
2023-08-02T21:13:45.676Z,5.67
2023-08-02T21:16:19.274Z,9.43
2023-08-02T21:18:53.410Z,5.57
2023-08-02T21:21:29.289Z,8.37
2023-08-02T21:24:01.679Z,9.97
2023-08-02T21:26:36.180Z,6.17
2023-08-02T21:29:06.941Z,5.33
2023-08-02T21:31:52.237Z,11.77
2023-08-02T21:34:22.704Z,8.70
2023-08-02T21:36:51.858Z,7.97
2023-08-02T21:39:23.991Z,8.60
2023-08-02T21:41:57.066Z,8.73
2023-08-02T21:44:32.065Z,9.83
2023-08-02T21:47:01.796Z,7.33
2023-08-02T21:49:31.613Z,12.80
2023-08-02T21:52:00.149Z,10.33
2023-08-02T21:54:33.241Z,7.37
2023-08-02T21:57:08.300Z,8.83
2023-08-02T21:59:37.562Z,7.40
2023-08-02T22:02:07.286Z,5.73
2023-08-02T22:04:45.523Z,10.57
2023-08-02T22:07:16.065Z,8.17
2023-08-02T22:09:47.581Z,6.67
2023-08-02T22:12:21.673Z,7.43
2023-08-02T22:14:50.730Z,6.13
2023-08-02T22:17:24.907Z,6.03
2023-08-02T22:19:53.710Z,8.57
2023-08-02T22:22:24.539Z,9.27
2023-08-02T22:24:56.616Z,8.33
2023-08-02T22:27:30.274Z,6.53
2023-08-02T22:30:08.731Z,10.77
2023-08-02T22:32:41.751Z,6.00
2023-08-02T22:35:12.317Z,7.00
2023-08-02T22:37:45.513Z,8.87
2023-08-02T22:40:21.546Z,6.80
2023-08-02T22:42:55.735Z,8.63
2023-08-02T22:45:24.889Z,7.40
2023-08-02T22:48:20.441Z,5.27
2023-08-02T22:53:27.111Z,5.70
2023-08-02T22:56:00.803Z,5.13
2023-08-02T22:58:29.386Z,5.00
2023-08-02T23:00:59.198Z,6.93
2023-08-02T23:03:36.765Z,7.30
2023-08-02T23:06:17.175Z,6.43
2023-08-02T23:08:48.560Z,6.70
2023-08-02T23:11:21.480Z,4.90
2023-08-02T23:14:00.208Z,9.50
2023-08-02T23:16:29.203Z,11.47
2023-08-02T23:19:01.151Z,6.60
2023-08-02T23:21:36.317Z,7.83
2023-08-02T23:24:05.791Z,4.53
2023-08-02T23:26:38.430Z,5.93
2023-08-02T23:29:08.399Z,5.37
2023-08-02T23:31:37.118Z,6.10
2023-08-02T23:34:06.084Z,9.00
2023-08-02T23:36:34.749Z,4.50
2023-08-02T23:39:03.525Z,6.90
2023-08-02T23:41:31.998Z,5.57
2023-08-02T23:44:02.223Z,4.97
2023-08-02T23:46:32.384Z,4.03
2023-08-02T23:49:00.979Z,5.97
2023-08-02T23:51:29.811Z,5.50
2023-08-02T23:54:01.599Z,8.17
2023-08-02T23:56:30.291Z,4.67
2023-08-02T23:59:00.452Z,5.17
